createdAt,value
2017-08-18T00:01:46.774Z,11.17
2017-08-18T00:04:16.509Z,11.00
2017-08-18T00:06:45.535Z,9.40
2017-08-18T00:09:14.626Z,9.37
2017-08-18T00:11:55.061Z,10.13
2017-08-18T00:14:25.142Z,10.23
2017-08-18T00:16:56.464Z,10.23
2017-08-18T00:19:26.614Z,10.70
2017-08-18T00:21:58.012Z,9.43
2017-08-18T00:24:27.728Z,9.80
2017-08-18T00:26:58.708Z,10.37
2017-08-18T00:29:28.469Z,10.40
2017-08-18T00:34:47.744Z,9.37
2017-08-18T00:37:22.987Z,9.60
2017-08-18T00:39:51.928Z,10.03
2017-08-18T00:42:21.569Z,10.33
2017-08-18T00:44:51.866Z,9.10
2017-08-18T00:47:21.925Z,8.90
2017-08-18T00:49:53.520Z,9.50
2017-08-18T00:52:24.822Z,9.40
2017-08-18T00:54:54.762Z,9.80
2017-08-18T00:57:24.561Z,9.83
2017-08-18T00:59:54.863Z,9.40
2017-08-18T01:02:25.006Z,8.70
2017-08-18T01:04:56.939Z,9.63
2017-08-18T01:07:26.621Z,9.07
2017-08-18T01:09:57.154Z,8.57
2017-08-18T01:12:26.526Z,8.00
2017-08-18T01:14:58.709Z,8.83
2017-08-18T01:17:27.898Z,8.87
2017-08-18T01:19:57.666Z,8.90
2017-08-18T01:22:26.700Z,8.33
2017-08-18T01:24:56.601Z,9.20
2017-08-18T01:27:27.162Z,8.73
2017-08-18T01:29:59.478Z,8.23
2017-08-18T01:32:29.624Z,8.60
2017-08-18T01:35:01.051Z,8.20
2017-08-18T01:37:30.572Z,9.07
2017-08-18T01:40:01.557Z,8.30
2017-08-18T01:42:31.322Z,8.10
2017-08-18T01:45:01.229Z,7.57
2017-08-18T01:47:31.236Z,7.97
2017-08-18T01:50:00.954Z,8.50
2017-08-18T01:52:29.954Z,8.07
2017-08-18T01:55:00.205Z,7.90
2017-08-18T01:57:30.065Z,7.70
2017-08-18T01:59:59.843Z,7.80
2017-08-18T02:02:29.547Z,7.37
2017-08-18T02:04:58.713Z,7.27
2017-08-18T02:07:30.735Z,7.90
2017-08-18T02:10:03.566Z,8.10
2017-08-18T02:12:32.662Z,7.63
2017-08-18T02:15:03.967Z,7.70
2017-08-18T02:17:32.946Z,7.00
2017-08-18T02:20:03.000Z,6.93
2017-08-18T02:22:36.569Z,7.40
2017-08-18T02:25:08.907Z,7.63
2017-08-18T02:27:38.587Z,7.40
2017-08-18T02:30:08.841Z,7.47
2017-08-18T02:32:38.127Z,6.97
2017-08-18T02:35:08.446Z,6.67
2017-08-18T02:37:38.117Z,7.40
2017-08-18T02:40:07.717Z,7.00
2017-08-18T02:42:37.396Z,7.50
2017-08-18T02:45:09.454Z,7.37
2017-08-18T02:47:38.606Z,7.17
2017-08-18T02:50:09.528Z,6.23
2017-08-18T02:52:42.623Z,6.57
2017-08-18T02:55:11.649Z,6.87
2017-08-18T02:57:44.851Z,6.57
2017-08-18T03:00:14.438Z,6.17
2017-08-18T03:02:46.905Z,6.10
2017-08-18T03:05:17.913Z,6.57
2017-08-18T03:07:48.273Z,6.03
2017-08-18T03:10:17.906Z,6.43
2017-08-18T03:12:47.470Z,6.17
2017-08-18T03:15:17.326Z,6.23
2017-08-18T03:17:48.370Z,6.10
2017-08-18T03:20:18.878Z,6.13
2017-08-18T03:22:49.538Z,6.40
2017-08-18T03:25:19.211Z,6.20
2017-08-18T03:27:50.599Z,5.87
2017-08-18T03:30:19.740Z,6.07
2017-08-18T03:32:52.434Z,6.43
2017-08-18T03:35:23.744Z,6.20
2017-08-18T03:37:54.013Z,6.23
2017-08-18T03:40:23.582Z,5.80
2017-08-18T03:42:54.196Z,6.27
2017-08-18T03:45:25.782Z,5.80
2017-08-18T03:47:59.842Z,5.97
2017-08-18T03:51:06.351Z,5.77
2017-08-18T03:53:48.552Z,6.37
2017-08-18T03:56:17.791Z,6.27
2017-08-18T03:58:46.984Z,6.60
2017-08-18T04:01:16.341Z,6.20
2017-08-18T04:03:46.020Z,6.50
2017-08-18T04:06:15.183Z,6.40
2017-08-18T04:08:48.522Z,7.00
2017-08-18T04:11:18.777Z,6.90
2017-08-18T04:13:48.607Z,7.80
2017-08-18T04:16:18.210Z,7.90
2017-08-18T04:18:48.899Z,7.47
2017-08-18T04:21:19.518Z,7.70
2017-08-18T04:23:50.087Z,6.87
2017-08-18T04:26:22.360Z,8.30
2017-08-18T04:28:52.907Z,7.57
2017-08-18T04:31:22.399Z,7.90
2017-08-18T04:33:52.982Z,8.23
2017-08-18T04:36:25.026Z,8.40
2017-08-18T04:38:56.710Z,7.50
2017-08-18T04:41:26.769Z,8.10
2017-08-18T04:43:59.225Z,8.10
2017-08-18T04:46:29.889Z,8.33
2017-08-18T04:49:02.986Z,7.97
2017-08-18T04:51:32.590Z,8.60
2017-08-18T04:54:03.996Z,8.50
2017-08-18T04:56:34.139Z,8.80
2017-08-18T04:59:05.215Z,8.93
2017-08-18T05:01:35.944Z,10.03
2017-08-18T05:04:04.913Z,9.20
2017-08-18T05:06:34.072Z,9.77
2017-08-18T05:09:07.170Z,9.43
2017-08-18T05:11:36.987Z,9.77
2017-08-18T05:14:06.964Z,9.83
2017-08-18T05:16:36.613Z,10.33
2017-08-18T05:19:05.663Z,10.30
2017-08-18T05:21:35.652Z,11.10
2017-08-18T05:24:07.028Z,10.17
2017-08-18T05:26:36.162Z,10.57
2017-08-18T05:29:10.311Z,11.27
2017-08-18T05:31:42.637Z,10.47
2017-08-18T05:34:11.893Z,11.30
2017-08-18T05:36:44.509Z,11.00
2017-08-18T05:39:14.794Z,9.90
2017-08-18T05:41:44.697Z,11.00
2017-08-18T05:44:13.978Z,11.50
2017-08-18T05:46:44.175Z,11.77
2017-08-18T05:49:13.300Z,11.30
2017-08-18T05:51:51.502Z,12.00
2017-08-18T05:54:20.929Z,11.70
2017-08-18T05:56:50.695Z,11.10
2017-08-18T05:59:20.131Z,11.93
2017-08-18T06:01:51.752Z,11.30
2017-08-18T06:04:20.952Z,11.27
2017-08-18T06:06:51.982Z,10.90
2017-08-18T06:09:21.108Z,11.00
2017-08-18T06:11:51.178Z,10.97
2017-08-18T06:16:59.304Z,9.93
2017-08-18T06:19:30.010Z,10.47
2017-08-18T06:22:00.561Z,10.60
2017-08-18T06:24:29.811Z,10.90
2017-08-18T06:27:00.661Z,11.30
2017-08-18T06:29:31.052Z,10.60
2017-08-18T06:32:02.594Z,11.07
2017-08-18T06:34:32.534Z,10.93
2017-08-18T06:37:01.710Z,10.00
2017-08-18T06:39:30.828Z,10.77
2017-08-18T06:42:00.226Z,10.83
2017-08-18T06:44:29.751Z,10.73
2017-08-18T06:46:59.809Z,10.90
2017-08-18T06:49:29.130Z,10.30
2017-08-18T06:52:01.655Z,10.60
2017-08-18T06:54:31.179Z,10.90
2017-08-18T06:57:02.657Z,11.20
2017-08-18T06:59:31.782Z,11.03
2017-08-18T07:02:04.042Z,11.20
2017-08-18T07:04:33.486Z,11.63
2017-08-18T07:07:04.499Z,11.40
2017-08-18T07:09:33.657Z,11.20
2017-08-18T07:12:07.192Z,11.07
2017-08-18T07:14:36.915Z,10.70
2017-08-18T07:17:08.945Z,11.00
2017-08-18T07:19:41.725Z,11.37
2017-08-18T07:22:14.461Z,11.73
2017-08-18T07:24:48.826Z,11.60
2017-08-18T07:27:22.092Z,10.47
2017-08-18T07:29:55.128Z,11.67
2017-08-18T07:32:25.262Z,10.83
2017-08-18T07:34:55.955Z,11.50
2017-08-18T07:37:25.367Z,11.57
2017-08-18T07:39:55.588Z,10.90
2017-08-18T07:42:25.517Z,11.50
2017-08-18T07:44:56.914Z,11.53
2017-08-18T07:47:26.011Z,12.43
2017-08-18T07:49:57.870Z,11.40
2017-08-18T07:52:27.717Z,10.67
2017-08-18T07:54:59.093Z,11.83
2017-08-18T07:57:29.406Z,11.13
2017-08-18T07:59:58.915Z,10.57
2017-08-18T08:02:28.912Z,10.00
2017-08-18T08:04:58.736Z,10.27
2017-08-18T08:07:27.712Z,11.23
2017-08-18T08:09:56.679Z,9.30
2017-08-18T08:12:26.690Z,10.50
2017-08-18T08:14:56.571Z,9.77
2017-08-18T08:17:25.663Z,10.10
2017-08-18T08:19:57.889Z,10.63
2017-08-18T08:22:27.897Z,9.83
2017-08-18T08:25:28.489Z,10.80
2017-08-18T08:27:59.344Z,10.90
2017-08-18T08:30:28.613Z,10.50
2017-08-18T08:33:45.572Z,11.17
2017-08-18T08:36:15.348Z,10.00
2017-08-18T08:38:46.969Z,10.70
2017-08-18T08:41:16.328Z,9.90
2017-08-18T08:43:46.035Z,11.10
2017-08-18T08:46:15.480Z,10.37
2017-08-18T08:48:45.052Z,12.47
2017-08-18T08:51:14.272Z,10.60
2017-08-18T08:53:45.416Z,11.23
2017-08-18T08:56:15.157Z,11.90
2017-08-18T08:58:45.335Z,11.27
2017-08-18T09:01:14.433Z,11.00
2017-08-18T09:03:46.731Z,10.80
2017-08-18T09:06:16.169Z,11.90
2017-08-18T09:08:47.413Z,11.10
2017-08-18T09:11:18.900Z,11.47
2017-08-18T09:13:48.953Z,11.10
2017-08-18T09:16:19.234Z,10.37
2017-08-18T09:18:53.369Z,11.77
2017-08-18T09:21:23.054Z,11.00
2017-08-18T09:23:53.701Z,11.60
2017-08-18T09:26:23.000Z,11.27
2017-08-18T09:31:28.687Z,10.67
2017-08-18T09:33:58.167Z,11.10
2017-08-18T09:36:27.538Z,11.00
2017-08-18T09:38:56.720Z,11.47
2017-08-18T09:41:27.191Z,11.20
2017-08-18T09:43:57.132Z,10.43
2017-08-18T09:46:26.329Z,11.00
2017-08-18T09:51:03.360Z,10.23
2017-08-18T09:53:37.019Z,10.57
2017-08-18T09:58:18.206Z,9.93
2017-08-18T10:00:48.880Z,10.40
2017-08-18T10:03:18.596Z,11.20
2017-08-18T10:05:51.405Z,10.70
2017-08-18T10:08:21.354Z,10.67
2017-08-18T10:10:51.798Z,11.40
2017-08-18T10:13:21.246Z,11.03
2017-08-18T10:15:52.162Z,11.70
2017-08-18T10:18:21.893Z,11.47
2017-08-18T10:20:53.044Z,12.60
2017-08-18T10:23:22.567Z,12.70
2017-08-18T10:25:52.056Z,14.30
2017-08-18T10:28:21.386Z,13.00
2017-08-18T10:30:50.815Z,14.00
2017-08-18T10:33:20.450Z,14.00
2017-08-18T10:35:52.297Z,14.73
2017-08-18T10:38:21.725Z,14.77
2017-08-18T10:40:56.080Z,16.07
2017-08-18T10:43:25.642Z,16.20
2017-08-18T10:45:56.654Z,16.20
2017-08-18T10:48:25.979Z,18.60
2017-08-18T10:50:56.339Z,15.90
2017-08-18T10:53:25.508Z,16.90
2017-08-18T10:56:01.445Z,17.40
2017-08-18T10:58:32.109Z,17.67
2017-08-18T11:01:03.006Z,17.43
2017-08-18T11:03:32.206Z,18.47
2017-08-18T11:06:05.653Z,17.90
2017-08-18T11:08:34.754Z,17.73
2017-08-18T11:11:05.622Z,19.00
2017-08-18T11:13:35.057Z,17.87
2017-08-18T11:16:07.093Z,16.93
2017-08-18T11:18:36.637Z,14.30
2017-08-18T11:21:06.156Z,15.43
2017-08-18T11:23:37.369Z,16.60
2017-08-18T11:26:08.447Z,16.40
2017-08-18T11:28:38.514Z,15.20
2017-08-18T11:31:07.727Z,15.63
2017-08-18T11:33:36.944Z,14.50
2017-08-18T11:36:06.445Z,15.10
2017-08-18T11:38:35.507Z,16.80
2017-08-18T11:41:04.932Z,15.43
2017-08-18T11:43:34.357Z,15.77
2017-08-18T11:46:03.453Z,14.77
2017-08-18T11:48:32.476Z,15.97
2017-08-18T11:51:02.825Z,14.33
2017-08-18T11:53:31.872Z,13.37
2017-08-18T11:56:02.090Z,13.30
2017-08-18T11:58:31.559Z,13.57
2017-08-18T12:01:01.081Z,13.00
2017-08-18T12:03:34.538Z,13.30
2017-08-18T12:06:10.209Z,12.50
2017-08-18T12:08:43.657Z,13.30
2017-08-18T12:11:15.201Z,12.90
2017-08-18T12:13:47.112Z,12.23
2017-08-18T12:16:17.600Z,12.80
2017-08-18T12:18:50.768Z,12.87
2017-08-18T12:21:22.034Z,12.93
2017-08-18T12:23:57.777Z,13.80
2017-08-18T12:26:27.463Z,11.70
2017-08-18T12:28:58.007Z,12.20
2017-08-18T12:31:27.663Z,10.77
2017-08-18T12:34:00.587Z,12.10
2017-08-18T12:36:30.381Z,11.43
2017-08-18T12:39:03.400Z,11.20
2017-08-18T12:41:34.534Z,10.87
2017-08-18T12:44:07.330Z,10.73
2017-08-18T12:46:37.856Z,10.73
2017-08-18T12:49:10.309Z,11.10
2017-08-18T12:51:47.123Z,11.23
2017-08-18T12:54:19.760Z,11.17
2017-08-18T12:56:52.858Z,11.43
2017-08-18T12:59:23.265Z,9.57
2017-08-18T13:01:57.314Z,361.33
2017-08-18T13:04:27.700Z,634.23
2017-08-18T13:06:59.230Z,191.60
2017-08-18T13:09:31.955Z,221.70
2017-08-18T13:12:05.066Z,212.80
2017-08-18T13:14:38.840Z,149.03
2017-08-18T13:17:13.940Z,125.43
2017-08-18T13:19:45.345Z,497.70
2017-08-18T13:22:16.195Z,467.00
2017-08-18T13:24:53.766Z,321.90
2017-08-18T13:27:24.267Z,168.27
2017-08-18T13:29:54.995Z,162.37
2017-08-18T13:32:26.303Z,136.47
2017-08-18T13:34:58.168Z,149.73
2017-08-18T13:37:27.962Z,150.17
2017-08-18T13:40:00.543Z,131.60
2017-08-18T13:42:30.392Z,100.77
2017-08-18T13:45:01.430Z,118.30
2017-08-18T13:47:31.675Z,72.97
2017-08-18T13:50:00.826Z,92.30
2017-08-18T13:52:31.087Z,80.83
2017-08-18T13:55:07.137Z,78.40
2017-08-18T13:57:37.242Z,59.63
2017-08-18T14:00:08.309Z,56.63
2017-08-18T14:05:15.820Z,53.73
2017-08-18T14:07:50.335Z,47.97
2017-08-18T14:10:21.011Z,48.00
2017-08-18T14:12:53.795Z,49.07
2017-08-18T14:15:23.873Z,43.03
2017-08-18T14:17:53.834Z,42.50
2017-08-18T14:20:25.264Z,42.20
2017-08-18T14:23:01.874Z,32.70
2017-08-18T14:25:36.582Z,29.30
2017-08-18T14:28:07.446Z,33.57
2017-08-18T14:30:37.824Z,31.63
2017-08-18T14:33:09.865Z,29.63
2017-08-18T14:38:14.508Z,23.93
2017-08-18T14:40:46.772Z,26.13
2017-08-18T14:43:16.405Z,23.33
2017-08-18T14:45:49.907Z,15.53
2017-08-18T14:48:19.895Z,21.27
2017-08-18T14:50:52.596Z,19.40
2017-08-18T14:53:22.679Z,16.13
2017-08-18T14:55:55.538Z,17.77
2017-08-18T14:58:26.395Z,17.43
2017-08-18T15:00:57.399Z,16.50
2017-08-18T15:03:28.479Z,16.17
2017-08-18T15:06:03.034Z,11.00
2017-08-18T15:08:36.961Z,14.30
2017-08-18T15:11:10.614Z,13.23
2017-08-18T15:13:43.705Z,13.53
2017-08-18T15:16:21.812Z,11.87
2017-08-18T15:18:52.674Z,11.87
2017-08-18T15:21:22.597Z,11.23
2017-08-18T15:23:53.939Z,9.27
2017-08-18T15:26:23.198Z,10.43
2017-08-18T15:28:54.770Z,9.43
2017-08-18T15:31:24.648Z,9.23
2017-08-18T15:33:55.591Z,8.13
2017-08-18T15:36:26.523Z,8.73
2017-08-18T15:39:03.881Z,8.00
2017-08-18T15:41:39.860Z,7.67
2017-08-18T15:44:16.842Z,6.97
2017-08-18T15:46:50.403Z,7.13
2017-08-18T15:49:21.180Z,7.00
2017-08-18T15:51:55.693Z,6.10
2017-08-18T15:54:25.289Z,6.57
2017-08-18T15:56:57.274Z,5.60
2017-08-18T15:59:28.323Z,5.23
2017-08-18T16:02:01.943Z,5.10
2017-08-18T16:07:19.852Z,5.43
2017-08-18T16:09:57.206Z,5.13
2017-08-18T16:12:28.019Z,4.80
2017-08-18T16:14:58.254Z,4.60
2017-08-18T16:20:14.310Z,5.00
2017-08-18T16:22:47.992Z,4.73
2017-08-18T16:25:27.130Z,4.63
2017-08-18T16:28:05.107Z,5.30
2017-08-18T16:30:35.973Z,5.13
2017-08-18T16:33:06.544Z,5.03
2017-08-18T16:35:37.004Z,5.10
2017-08-18T16:41:02.937Z,4.47
2017-08-18T16:43:32.719Z,4.30
2017-08-18T16:46:14.658Z,4.20
2017-08-18T16:48:47.761Z,4.27
2017-08-18T16:51:18.752Z,4.33
2017-08-18T16:53:48.849Z,4.70
2017-08-18T16:56:23.690Z,4.50
2017-08-18T16:58:55.147Z,4.60
2017-08-18T17:01:24.898Z,4.00
2017-08-18T17:03:53.990Z,4.77
2017-08-18T17:06:31.229Z,4.13
2017-08-18T17:09:04.315Z,4.70
2017-08-18T17:11:35.937Z,3.70
2017-08-18T17:14:13.266Z,3.50
2017-08-18T17:16:48.325Z,3.03
2017-08-18T17:19:19.191Z,3.03
2017-08-18T17:21:52.957Z,2.70
2017-08-18T17:24:23.433Z,2.97
2017-08-18T17:26:55.570Z,2.63
2017-08-18T17:29:27.899Z,2.67
2017-08-18T17:32:00.090Z,2.30
2017-08-18T17:34:30.010Z,2.37
2017-08-18T17:37:02.956Z,2.13
2017-08-18T17:39:32.503Z,2.10
2017-08-18T17:42:02.927Z,2.57
2017-08-18T17:44:33.731Z,1.90
2017-08-18T17:47:23.465Z,1.60
2017-08-18T17:49:59.452Z,1.80
2017-08-18T17:52:31.738Z,1.70
2017-08-18T17:55:06.471Z,1.70
2017-08-18T17:57:38.764Z,1.77
2017-08-18T18:00:10.830Z,1.60
2017-08-18T18:02:45.967Z,1.80
2017-08-18T18:05:16.426Z,2.27
2017-08-18T18:07:49.435Z,1.30
2017-08-18T18:10:19.577Z,1.53
2017-08-18T18:12:51.224Z,1.60
2017-08-18T18:15:20.836Z,1.60
2017-08-18T18:17:55.644Z,1.53
2017-08-18T18:20:25.516Z,1.43
2017-08-18T18:22:57.425Z,1.60
2017-08-18T18:25:27.049Z,1.10
2017-08-18T18:28:01.082Z,1.37
2017-08-18T18:30:31.518Z,1.37
2017-08-18T18:33:04.562Z,0.90
2017-08-18T18:35:34.349Z,1.20
2017-08-18T18:38:06.339Z,1.00
2017-08-18T18:40:36.501Z,1.00
2017-08-18T18:43:07.946Z,1.07
2017-08-18T18:45:38.076Z,1.30
2017-08-18T18:48:15.667Z,1.00
2017-08-18T18:50:54.371Z,0.83
2017-08-18T18:53:26.430Z,0.80
2017-08-18T18:56:02.539Z,0.80
2017-08-18T18:58:33.328Z,1.00
2017-08-18T19:01:06.532Z,1.07
2017-08-18T19:03:37.722Z,0.80
2017-08-18T19:06:11.529Z,1.20
2017-08-18T19:08:45.031Z,1.30
2017-08-18T19:11:14.870Z,1.17
2017-08-18T19:13:46.285Z,1.10
2017-08-18T19:16:15.979Z,1.20
2017-08-18T19:18:48.790Z,0.90
2017-08-18T19:21:19.058Z,1.20
2017-08-18T19:23:53.050Z,1.30
2017-08-18T19:26:24.978Z,0.93
2017-08-18T19:28:58.532Z,1.30
2017-08-18T19:31:27.975Z,1.17
2017-08-18T19:33:57.426Z,1.27
2017-08-18T19:36:27.490Z,1.03
2017-08-18T19:38:56.939Z,1.50
2017-08-18T19:41:27.629Z,1.47
2017-08-18T19:43:56.756Z,1.37
2017-08-18T19:46:26.746Z,1.20
2017-08-18T19:48:57.011Z,1.20
2017-08-18T19:51:27.395Z,0.90
2017-08-18T19:53:58.320Z,1.63
2017-08-18T19:56:28.321Z,1.43
2017-08-18T19:58:58.515Z,1.30
2017-08-18T20:01:28.862Z,1.20
2017-08-18T20:03:59.265Z,1.30
2017-08-18T20:06:28.688Z,1.50
2017-08-18T20:08:58.517Z,1.20
2017-08-18T20:11:30.972Z,2.73
2017-08-18T20:14:03.068Z,64.57
2017-08-18T20:16:33.629Z,210.73
2017-08-18T20:19:12.122Z,143.53
2017-08-18T20:21:46.072Z,95.73
2017-08-18T20:24:16.289Z,111.53
2017-08-18T20:26:45.839Z,69.30
2017-08-18T20:29:15.232Z,54.93
2017-08-18T20:31:45.239Z,46.20
2017-08-18T20:34:14.492Z,30.67
2017-08-18T20:36:43.920Z,26.27
2017-08-18T20:39:13.112Z,114.73
2017-08-18T20:41:48.760Z,310.43
2017-08-18T20:44:18.258Z,219.77
2017-08-18T20:46:49.202Z,190.63
2017-08-18T20:49:18.722Z,148.93
2017-08-18T20:51:48.251Z,92.47
2017-08-18T20:54:17.377Z,62.37
2017-08-18T20:56:49.275Z,42.90
2017-08-18T20:59:19.803Z,27.30
2017-08-18T21:01:49.661Z,16.93
2017-08-18T21:04:18.982Z,11.07
2017-08-18T21:06:56.475Z,8.20
2017-08-18T21:09:26.119Z,5.33
2017-08-18T21:12:05.821Z,500.23
2017-08-18T21:14:35.456Z,268.87
2017-08-18T21:17:05.506Z,180.90
2017-08-18T21:19:34.882Z,49.17
2017-08-18T21:22:07.416Z,27.93
2017-08-18T21:24:37.050Z,22.13
2017-08-18T21:27:06.774Z,11.10
2017-08-18T21:29:36.211Z,8.03
2017-08-18T21:32:07.053Z,4.73
2017-08-18T21:34:36.264Z,5.07
2017-08-18T21:37:06.082Z,118.57
2017-08-18T21:39:36.489Z,37.40
2017-08-18T21:42:08.358Z,24.73
2017-08-18T21:44:37.417Z,8.53
2017-08-18T21:47:11.863Z,3.13
2017-08-18T21:49:43.389Z,2.33
2017-08-18T21:52:13.887Z,2.73
2017-08-18T21:54:45.472Z,3.30
2017-08-18T21:57:14.688Z,128.13
2017-08-18T21:59:51.087Z,88.23
2017-08-18T22:02:21.019Z,206.90
2017-08-18T22:04:50.913Z,120.17
2017-08-18T22:07:20.999Z,75.37
2017-08-18T22:09:51.151Z,57.80
2017-08-18T22:12:20.954Z,75.50
2017-08-18T22:14:54.245Z,255.73
2017-08-18T22:17:24.490Z,280.80
2017-08-18T22:19:54.345Z,198.70
2017-08-18T22:22:23.607Z,118.23
2017-08-18T22:24:55.499Z,78.63
2017-08-18T22:27:25.687Z,76.27
2017-08-18T22:29:55.234Z,176.67
2017-08-18T22:32:25.014Z,116.17
2017-08-18T22:34:58.259Z,118.77
2017-08-18T22:37:27.569Z,61.17
2017-08-18T22:39:58.438Z,51.13
2017-08-18T22:42:28.126Z,27.70
2017-08-18T22:44:59.321Z,19.37
2017-08-18T22:47:29.095Z,284.87
2017-08-18T22:49:58.661Z,354.20
2017-08-18T22:52:28.308Z,261.47
2017-08-18T22:54:58.584Z,176.77
2017-08-18T22:57:27.988Z,114.20
2017-08-18T22:59:59.083Z,53.03
2017-08-18T23:02:30.205Z,27.53
2017-08-18T23:05:02.615Z,36.33
2017-08-18T23:07:32.000Z,38.53
2017-08-18T23:10:05.377Z,59.47
2017-08-18T23:12:35.462Z,32.47
2017-08-18T23:15:05.465Z,83.90
2017-08-18T23:17:36.687Z,214.40
2017-08-18T23:20:07.137Z,182.87
2017-08-18T23:22:37.086Z,142.37
2017-08-18T23:25:08.748Z,74.17
2017-08-18T23:27:42.177Z,62.90
2017-08-18T23:30:13.441Z,294.87
2017-08-18T23:32:48.568Z,214.23
2017-08-18T23:35:18.977Z,127.40
2017-08-18T23:37:50.730Z,206.97
2017-08-18T23:40:20.428Z,40.50
2017-08-18T23:42:53.125Z,22.53
2017-08-18T23:45:23.272Z,14.30
2017-08-18T23:47:55.070Z,13.20
2017-08-18T23:50:31.731Z,12.07
2017-08-18T23:53:02.532Z,9.90
2017-08-18T23:55:31.760Z,9.10
2017-08-18T23:58:02.815Z,9.10
